createdAt,value
2018-09-20T00:02:17.911Z,42.75
2018-09-20T00:04:44.313Z,43.00
2018-09-20T00:07:10.715Z,42.93
2018-09-20T00:09:37.172Z,42.97
2018-09-20T00:12:03.534Z,43.03
2018-09-20T00:14:29.943Z,42.92
2018-09-20T00:16:56.288Z,42.97
2018-09-20T00:19:22.611Z,43.05
2018-09-20T00:21:49.007Z,43.02
2018-09-20T00:24:15.385Z,43.06
2018-09-20T00:26:41.769Z,43.20
2018-09-20T00:29:08.186Z,43.14
2018-09-20T00:31:34.562Z,43.16
2018-09-20T00:34:00.928Z,43.30
2018-09-20T00:36:27.287Z,43.29
2018-09-20T00:38:53.722Z,43.30
2018-09-20T00:41:20.099Z,43.32
2018-09-20T00:43:46.423Z,43.37
2018-09-20T00:46:12.806Z,43.39
2018-09-20T00:48:39.152Z,43.34
2018-09-20T00:51:05.603Z,43.40
2018-09-20T00:53:31.946Z,43.51
2018-09-20T00:55:58.386Z,43.28
2018-09-20T00:58:24.782Z,43.32
2018-09-20T01:00:51.179Z,43.49
2018-09-20T01:03:17.543Z,43.87
2018-09-20T01:05:43.881Z,43.87
2018-09-20T01:08:10.300Z,44.24
2018-09-20T01:10:36.646Z,44.51
2018-09-20T01:13:03.000Z,44.46
2018-09-20T01:15:29.372Z,44.73
2018-09-20T01:17:55.722Z,44.56
2018-09-20T01:20:22.154Z,44.77
2018-09-20T01:22:48.522Z,44.91
2018-09-20T01:25:14.918Z,44.87
2018-09-20T01:27:41.273Z,44.87
2018-09-20T01:30:07.676Z,44.97
2018-09-20T01:32:34.038Z,45.00
2018-09-20T01:35:00.389Z,44.79
2018-09-20T01:37:26.757Z,44.96
2018-09-20T01:39:53.236Z,44.98
2018-09-20T01:42:19.619Z,44.90
2018-09-20T01:44:45.973Z,44.97
2018-09-20T01:47:12.334Z,44.84
2018-09-20T01:49:38.695Z,44.70
2018-09-20T01:52:05.092Z,44.99
2018-09-20T01:54:31.516Z,45.22
2018-09-20T01:56:57.992Z,44.87
2018-09-20T01:59:24.386Z,44.89
2018-09-20T02:01:50.764Z,44.83
2018-09-20T02:04:17.144Z,44.84
2018-09-20T02:06:43.546Z,44.99
2018-09-20T02:09:09.940Z,44.92
2018-09-20T02:11:36.347Z,45.01
2018-09-20T02:14:02.720Z,45.00
2018-09-20T02:16:29.087Z,45.01
2018-09-20T02:18:55.466Z,45.27
2018-09-20T02:21:21.911Z,45.24
2018-09-20T02:23:48.314Z,45.25
2018-09-20T02:26:14.729Z,45.27
2018-09-20T02:28:41.085Z,45.15
2018-09-20T02:31:07.484Z,45.12
2018-09-20T02:33:33.857Z,45.21
2018-09-20T02:36:00.207Z,45.38
2018-09-20T02:38:26.585Z,45.17
2018-09-20T02:40:52.975Z,45.32
2018-09-20T02:43:19.479Z,45.12
2018-09-20T02:45:45.891Z,45.15
2018-09-20T02:48:12.782Z,45.05
2018-09-20T02:50:39.267Z,44.93
2018-09-20T02:53:05.626Z,45.12
2018-09-20T02:55:32.053Z,45.14
2018-09-20T02:57:58.496Z,45.15
2018-09-20T03:00:24.905Z,45.35
2018-09-20T03:02:51.234Z,45.37
2018-09-20T03:05:17.590Z,45.28
2018-09-20T03:07:44.026Z,45.18
2018-09-20T03:10:10.506Z,45.04
2018-09-20T03:12:36.906Z,44.92
2018-09-20T03:15:03.383Z,44.76
2018-09-20T03:17:29.778Z,44.50
2018-09-20T03:19:56.162Z,44.51
2018-09-20T03:22:22.528Z,44.47
2018-09-20T03:24:48.917Z,44.40
2018-09-20T03:27:15.290Z,44.48
2018-09-20T03:29:41.830Z,44.34
2018-09-20T03:32:08.293Z,44.24
2018-09-20T03:34:34.684Z,44.26
2018-09-20T03:37:01.045Z,44.13
2018-09-20T03:39:27.414Z,44.09
2018-09-20T03:41:53.779Z,44.00
2018-09-20T03:44:20.168Z,43.93
2018-09-20T03:46:46.568Z,43.87
2018-09-20T03:49:12.909Z,43.95
2018-09-20T03:51:39.341Z,43.80
2018-09-20T03:54:05.818Z,43.81
2018-09-20T03:56:32.207Z,43.82
2018-09-20T03:58:58.881Z,43.79
2018-09-20T04:01:25.416Z,43.79
2018-09-20T04:03:51.817Z,43.69
2018-09-20T04:06:18.206Z,43.61
2018-09-20T04:08:44.569Z,43.64
2018-09-20T04:11:10.976Z,43.56
2018-09-20T04:13:37.343Z,43.63
2018-09-20T04:16:03.737Z,43.58
2018-09-20T04:18:30.099Z,43.55
2018-09-20T04:20:56.459Z,43.54
2018-09-20T04:23:22.841Z,43.55
2018-09-20T04:25:49.221Z,43.48
2018-09-20T04:28:15.622Z,43.39
2018-09-20T04:30:42.031Z,43.36
2018-09-20T04:33:08.383Z,43.32
2018-09-20T04:35:34.711Z,43.29
2018-09-20T04:38:01.113Z,43.16
2018-09-20T04:40:27.620Z,43.12
2018-09-20T04:42:53.977Z,43.10
2018-09-20T04:45:20.519Z,42.76
2018-09-20T04:47:46.868Z,42.88
2018-09-20T04:50:13.327Z,42.91
2018-09-20T04:52:39.755Z,42.77
2018-09-20T04:55:06.161Z,42.64
2018-09-20T04:57:32.686Z,42.52
2018-09-20T04:59:59.177Z,42.60
2018-09-20T05:02:25.442Z,42.45
2018-09-20T05:04:51.919Z,42.56
2018-09-20T05:07:18.415Z,42.41
2018-09-20T05:09:44.843Z,42.40
2018-09-20T05:12:11.217Z,42.51
2018-09-20T05:14:37.592Z,42.50
2018-09-20T05:17:04.157Z,42.48
2018-09-20T05:19:30.575Z,42.26
2018-09-20T05:21:56.947Z,42.45
2018-09-20T05:24:23.385Z,42.40
2018-09-20T05:26:49.766Z,42.45
2018-09-20T05:29:16.117Z,42.32
2018-09-20T05:31:42.526Z,42.32
2018-09-20T05:34:08.933Z,42.29
2018-09-20T05:36:35.305Z,42.30
2018-09-20T05:39:01.698Z,42.23
2018-09-20T05:41:28.082Z,42.26
2018-09-20T05:43:54.458Z,42.34
2018-09-20T05:46:20.876Z,42.31
2018-09-20T05:48:47.243Z,42.13
2018-09-20T05:51:13.605Z,42.24
2018-09-20T05:53:40.107Z,42.07
2018-09-20T05:56:06.552Z,42.14
2018-09-20T05:58:32.976Z,42.10
2018-09-20T06:00:59.373Z,42.04
2018-09-20T06:03:25.776Z,42.11
2018-09-20T06:05:52.141Z,41.97
2018-09-20T06:08:18.534Z,41.93
2018-09-20T06:10:44.920Z,41.63
2018-09-20T06:13:11.349Z,41.84
2018-09-20T06:15:37.761Z,41.69
2018-09-20T06:18:04.166Z,41.67
2018-09-20T06:20:30.564Z,41.56
2018-09-20T06:22:56.928Z,41.53
2018-09-20T06:25:23.387Z,41.49
2018-09-20T06:27:49.748Z,41.47
2018-09-20T06:30:16.157Z,41.31
2018-09-20T06:32:42.525Z,41.18
2018-09-20T06:35:08.974Z,41.06
2018-09-20T06:37:35.397Z,41.04
2018-09-20T06:40:01.783Z,40.88
2018-09-20T06:42:28.163Z,40.86
2018-09-20T06:44:54.620Z,40.86
2018-09-20T06:47:21.012Z,40.78
2018-09-20T06:49:47.435Z,41.22
2018-09-20T06:52:13.884Z,40.74
2018-09-20T06:54:40.253Z,40.60
2018-09-20T06:57:06.646Z,40.62
2018-09-20T06:59:33.090Z,40.75
2018-09-20T07:01:59.515Z,40.64
2018-09-20T07:04:25.941Z,40.66
2018-09-20T07:06:52.375Z,40.81
2018-09-20T07:09:18.808Z,40.67
2018-09-20T07:11:45.241Z,40.52
2018-09-20T07:14:11.621Z,40.55
2018-09-20T07:16:38.124Z,40.67
2018-09-20T07:19:04.536Z,40.47
2018-09-20T07:21:31.001Z,40.54
2018-09-20T07:23:57.403Z,40.37
2018-09-20T07:26:23.833Z,40.38
2018-09-20T07:28:50.209Z,40.23
2018-09-20T07:31:16.617Z,40.27
2018-09-20T07:33:43.056Z,40.27
2018-09-20T07:36:09.522Z,40.27
2018-09-20T07:38:36.083Z,40.19
2018-09-20T07:41:02.460Z,40.01
2018-09-20T07:43:28.843Z,39.98
2018-09-20T07:45:55.326Z,39.96
2018-09-20T07:48:21.731Z,39.97
2018-09-20T07:50:48.174Z,39.96
2018-09-20T07:53:15.136Z,39.88
2018-09-20T07:55:42.068Z,39.97
2018-09-20T07:58:08.447Z,39.87
2018-09-20T08:00:34.838Z,39.77
2018-09-20T08:03:02.251Z,39.81
2018-09-20T08:08:03.573Z,39.54
2018-09-20T08:10:29.995Z,39.65
2018-09-20T08:12:58.274Z,39.68
2018-09-20T08:16:19.122Z,39.64
2018-09-20T08:18:46.020Z,39.52
2018-09-20T08:21:12.706Z,39.36
2018-09-20T08:23:39.297Z,39.49
2018-09-20T08:26:05.715Z,39.47
2018-09-20T08:28:32.165Z,39.43
2018-09-20T08:30:58.531Z,39.62
2018-09-20T08:36:05.630Z,39.49
2018-09-20T08:38:33.762Z,39.69
2018-09-20T08:41:00.157Z,39.68
2018-09-20T08:46:01.164Z,39.72
2018-09-20T08:48:28.525Z,39.68
2018-09-20T08:53:27.508Z,39.75
2018-09-20T08:55:53.945Z,39.75
2018-09-20T08:58:20.321Z,39.74
2018-09-20T09:00:46.704Z,39.99
2018-09-20T09:03:13.104Z,39.92
2018-09-20T09:05:39.694Z,39.82
2018-09-20T09:08:06.168Z,39.91
2018-09-20T09:13:08.348Z,39.91
2018-09-20T09:15:34.724Z,39.78
2018-09-20T09:18:01.130Z,39.88
2018-09-20T09:20:27.594Z,40.17
2018-09-20T09:22:53.974Z,39.88
2018-09-20T09:25:20.414Z,39.97
2018-09-20T09:27:46.865Z,39.84
2018-09-20T09:30:13.250Z,39.96
2018-09-20T09:32:39.643Z,39.84
2018-09-20T09:35:06.106Z,39.87
2018-09-20T09:37:32.598Z,39.58
2018-09-20T09:39:58.996Z,39.59
2018-09-20T09:42:25.375Z,39.53
2018-09-20T09:44:51.790Z,39.63
2018-09-20T09:47:18.206Z,39.23
2018-09-20T09:49:44.553Z,39.12
2018-09-20T09:52:11.059Z,39.27
2018-09-20T09:54:37.848Z,39.17
2018-09-20T09:57:04.295Z,38.97
2018-09-20T09:59:31.724Z,39.27
2018-09-20T10:01:58.074Z,38.99
2018-09-20T10:04:24.442Z,38.98
2018-09-20T10:06:50.830Z,39.00
2018-09-20T10:09:17.245Z,39.15
2018-09-20T10:11:43.637Z,39.31
2018-09-20T10:14:10.169Z,38.93
2018-09-20T10:16:36.552Z,39.01
2018-09-20T10:19:02.957Z,39.13
2018-09-20T10:21:30.482Z,38.91
2018-09-20T10:23:57.074Z,38.96
2018-09-20T10:26:23.500Z,38.43
2018-09-20T10:28:50.073Z,38.33
2018-09-20T10:31:16.489Z,38.34
2018-09-20T10:33:42.975Z,38.47
2018-09-20T10:36:09.404Z,38.13
2018-09-20T10:38:35.911Z,38.13
2018-09-20T10:41:02.609Z,37.72
2018-09-20T10:43:29.113Z,38.05
2018-09-20T10:45:55.621Z,37.50
2018-09-20T10:48:25.117Z,37.75
2018-09-20T10:50:51.686Z,37.52
2018-09-20T10:53:20.239Z,37.65
2018-09-20T10:55:46.710Z,37.66
2018-09-20T10:58:13.104Z,38.00
2018-09-20T11:00:41.204Z,37.93
2018-09-20T11:03:07.802Z,37.80
2018-09-20T11:05:38.319Z,37.79
2018-09-20T11:08:04.750Z,37.83
2018-09-20T11:10:31.273Z,37.76
2018-09-20T11:12:57.730Z,37.72
2018-09-20T11:15:25.506Z,38.19
2018-09-20T11:17:51.924Z,38.02
2018-09-20T11:20:18.296Z,38.04
2018-09-20T11:22:44.676Z,37.89
2018-09-20T11:25:11.090Z,38.11
2018-09-20T11:27:37.572Z,38.04
2018-09-20T11:30:03.962Z,38.05
2018-09-20T11:32:31.800Z,37.94
2018-09-20T11:37:30.575Z,38.14
2018-09-20T11:39:56.954Z,38.04
2018-09-20T11:42:23.387Z,38.13
2018-09-20T11:44:49.734Z,37.91
2018-09-20T11:47:16.138Z,38.14
2018-09-20T11:49:42.565Z,37.94
2018-09-20T11:52:08.917Z,38.40
2018-09-20T11:54:35.349Z,37.90
2018-09-20T11:57:01.719Z,38.13
2018-09-20T11:59:28.115Z,38.01
2018-09-20T12:01:54.620Z,38.34
2018-09-20T12:04:21.054Z,38.46
2018-09-20T12:06:47.464Z,38.18
2018-09-20T12:09:13.817Z,38.44
2018-09-20T12:11:40.248Z,38.60
2018-09-20T12:14:06.607Z,38.59
2018-09-20T12:16:32.995Z,38.41
2018-09-20T12:18:59.358Z,38.46
2018-09-20T12:21:25.735Z,38.66
2018-09-20T12:23:52.200Z,38.71
2018-09-20T12:26:18.633Z,38.51
2018-09-20T12:28:45.027Z,38.53
2018-09-20T12:31:11.424Z,38.45
2018-09-20T12:33:37.800Z,38.32
2018-09-20T12:36:04.252Z,38.25
2018-09-20T12:38:30.703Z,38.33
2018-09-20T12:40:57.086Z,38.09
2018-09-20T12:43:23.500Z,38.20
2018-09-20T12:45:50.153Z,38.15
2018-09-20T12:48:16.561Z,38.14
2018-09-20T12:50:42.942Z,37.91
2018-09-20T12:53:09.812Z,37.96
2018-09-20T12:55:36.347Z,38.06
2018-09-20T12:58:02.726Z,37.91
2018-09-20T13:00:29.315Z,37.85
2018-09-20T13:02:55.797Z,37.67
2018-09-20T13:05:22.286Z,37.69
2018-09-20T13:07:48.715Z,37.46
2018-09-20T13:10:15.145Z,37.09
2018-09-20T13:12:41.607Z,37.27
2018-09-20T13:15:08.354Z,37.16
2018-09-20T13:20:08.281Z,37.17
2018-09-20T13:22:34.589Z,37.11
2018-09-20T13:25:00.938Z,36.91
2018-09-20T13:27:27.345Z,37.23
2018-09-20T13:29:53.739Z,36.88
2018-09-20T13:32:20.100Z,36.82
2018-09-20T13:34:46.513Z,36.83
2018-09-20T13:37:13.025Z,36.79
2018-09-20T13:39:39.330Z,36.59
2018-09-20T13:42:05.734Z,36.95
2018-09-20T13:44:32.205Z,36.63
2018-09-20T13:54:39.675Z,36.93
2018-09-20T13:57:06.083Z,37.12
2018-09-20T14:02:06.592Z,37.24
2018-09-20T14:04:32.982Z,37.39
2018-09-20T14:06:59.383Z,37.34
2018-09-20T14:09:25.816Z,37.34
2018-09-20T14:11:52.214Z,37.50
2018-09-20T14:14:18.565Z,37.37
2018-09-20T14:16:44.961Z,37.50
2018-09-20T14:19:11.368Z,37.56
2018-09-20T14:21:37.738Z,37.59
2018-09-20T14:24:04.178Z,37.67
2018-09-20T14:26:30.547Z,37.42
2018-09-20T14:28:56.930Z,37.75
2018-09-20T14:31:23.304Z,37.48
2018-09-20T14:33:49.659Z,37.56
2018-09-20T14:36:16.031Z,37.59
2018-09-20T14:38:42.400Z,37.68
2018-09-20T14:41:08.797Z,37.53
2018-09-20T14:43:35.265Z,37.50
2018-09-20T14:46:01.689Z,37.52
2018-09-20T14:48:28.097Z,37.36
2018-09-20T14:50:54.467Z,37.53
2018-09-20T14:53:20.895Z,37.53
2018-09-20T14:55:47.290Z,37.52
2018-09-20T14:58:13.684Z,37.16
2018-09-20T15:00:40.090Z,37.40
2018-09-20T15:03:06.439Z,37.34
2018-09-20T15:05:32.789Z,37.23
2018-09-20T15:07:59.190Z,37.39
2018-09-20T15:10:25.558Z,37.40
2018-09-20T15:12:51.928Z,37.37
2018-09-20T15:15:18.457Z,37.37
2018-09-20T15:17:45.628Z,37.33
2018-09-20T15:20:12.033Z,37.25
2018-09-20T15:22:38.466Z,37.31
2018-09-20T15:25:04.829Z,37.28
2018-09-20T15:27:31.183Z,37.23
2018-09-20T15:29:57.615Z,37.24
2018-09-20T15:32:24.076Z,37.22
2018-09-20T15:34:50.427Z,37.30
2018-09-20T15:37:16.894Z,37.33
2018-09-20T15:39:43.332Z,37.32
2018-09-20T15:42:09.709Z,37.24
2018-09-20T15:44:36.089Z,37.30
2018-09-20T15:47:02.453Z,37.26
2018-09-20T15:49:28.807Z,37.21
2018-09-20T15:51:55.199Z,37.15
2018-09-20T15:54:21.564Z,37.06
2018-09-20T15:56:47.993Z,37.12
2018-09-20T15:59:14.398Z,37.06
2018-09-20T16:01:40.732Z,37.02
2018-09-20T16:04:07.136Z,37.16
2018-09-20T16:06:33.552Z,37.22
2018-09-20T16:08:59.896Z,37.12
2018-09-20T16:11:26.257Z,37.11
2018-09-20T16:13:52.668Z,37.07
2018-09-20T16:16:19.059Z,37.06
2018-09-20T16:18:45.386Z,37.11
2018-09-20T16:21:11.779Z,36.99
2018-09-20T16:23:38.197Z,37.00
2018-09-20T16:26:04.534Z,37.15
2018-09-20T16:28:30.879Z,37.08
2018-09-20T16:30:57.236Z,37.08
2018-09-20T16:33:23.596Z,37.14
2018-09-20T16:35:49.977Z,37.24
2018-09-20T16:38:16.510Z,37.17
2018-09-20T16:40:42.872Z,37.10
2018-09-20T16:43:09.323Z,37.23
2018-09-20T16:45:35.705Z,37.18
2018-09-20T16:48:02.129Z,37.21
2018-09-20T16:50:28.540Z,37.21
2018-09-20T16:52:54.951Z,37.19
2018-09-20T16:55:21.341Z,37.21
2018-09-20T16:57:47.695Z,37.21
2018-09-20T17:00:14.047Z,37.22
2018-09-20T17:02:40.431Z,37.17
2018-09-20T17:05:06.895Z,37.21
2018-09-20T17:07:33.232Z,37.17
2018-09-20T17:09:59.591Z,37.32
2018-09-20T17:12:25.960Z,37.39
2018-09-20T17:14:52.344Z,37.63
2018-09-20T17:17:18.746Z,37.68
2018-09-20T17:19:45.125Z,37.80
2018-09-20T17:22:11.506Z,37.92
2018-09-20T17:24:37.883Z,37.98
2018-09-20T17:27:04.349Z,37.91
2018-09-20T17:29:30.754Z,37.96
2018-09-20T17:31:57.109Z,37.93
2018-09-20T17:34:24.178Z,37.94
2018-09-20T17:36:50.528Z,38.02
2018-09-20T17:39:16.987Z,38.01
2018-09-20T17:41:43.456Z,38.06
2018-09-20T17:44:09.866Z,38.08
2018-09-20T17:46:36.210Z,38.09
2018-09-20T17:49:02.647Z,38.03
2018-09-20T17:51:28.997Z,38.06
2018-09-20T17:53:55.369Z,37.81
2018-09-20T17:56:21.775Z,37.71
2018-09-20T17:58:48.126Z,38.00
2018-09-20T18:01:14.479Z,38.10
2018-09-20T18:03:40.910Z,38.09
2018-09-20T18:06:07.328Z,38.01
2018-09-20T18:08:33.736Z,38.10
2018-09-20T18:11:00.068Z,38.01
2018-09-20T18:13:26.573Z,37.91
2018-09-20T18:15:52.972Z,37.90
2018-09-20T18:18:19.448Z,37.96
2018-09-20T18:20:45.720Z,37.92
2018-09-20T18:23:12.103Z,37.96
2018-09-20T18:25:38.433Z,37.97
2018-09-20T18:30:37.262Z,38.02
2018-09-20T18:33:03.623Z,38.01
2018-09-20T18:35:30.022Z,38.07
2018-09-20T18:37:56.368Z,38.10
2018-09-20T18:40:22.783Z,38.12
2018-09-20T18:42:49.124Z,38.13
2018-09-20T18:45:15.463Z,38.17
2018-09-20T18:47:41.837Z,38.14
2018-09-20T18:50:08.235Z,37.98
2018-09-20T18:52:34.550Z,38.04
2018-09-20T18:55:01.059Z,38.09
2018-09-20T18:57:27.456Z,38.07
2018-09-20T18:59:53.845Z,38.14
2018-09-20T19:02:20.215Z,38.08
2018-09-20T19:04:46.600Z,37.98
2018-09-20T19:07:12.968Z,37.99
2018-09-20T19:09:39.451Z,37.96
2018-09-20T19:12:05.839Z,37.95
2018-09-20T19:14:32.210Z,37.80
2018-09-20T19:16:58.548Z,37.80
2018-09-20T19:19:24.885Z,37.93
2018-09-20T19:21:51.274Z,37.82
2018-09-20T19:24:17.638Z,38.02
2018-09-20T19:26:44.121Z,38.00
2018-09-20T19:29:10.503Z,37.98
2018-09-20T19:31:36.873Z,37.88
2018-09-20T19:34:03.258Z,37.89
2018-09-20T19:36:29.610Z,37.93
2018-09-20T19:38:56.094Z,37.96
2018-09-20T19:46:25.855Z,37.93
2018-09-20T19:48:52.199Z,37.96
2018-09-20T19:51:18.641Z,37.92
2018-09-20T19:53:45.008Z,37.95
2018-09-20T19:56:11.406Z,37.89
2018-09-20T19:58:37.770Z,37.82
2018-09-20T20:01:04.239Z,37.82
2018-09-20T20:03:30.626Z,37.75
2018-09-20T20:05:56.961Z,37.72
2018-09-20T20:08:23.474Z,37.70
2018-09-20T20:10:49.813Z,37.67
2018-09-20T20:13:16.294Z,37.60
2018-09-20T20:15:42.640Z,37.53
2018-09-20T20:18:09.003Z,37.52
2018-09-20T20:20:35.404Z,37.53
2018-09-20T20:23:01.766Z,37.51
2018-09-20T20:25:28.131Z,37.58
2018-09-20T20:27:54.451Z,37.46
2018-09-20T20:30:20.954Z,37.43
2018-09-20T20:32:47.285Z,37.45
2018-09-20T20:35:13.630Z,37.45
2018-09-20T20:37:39.982Z,37.36
2018-09-20T20:40:06.341Z,37.40
2018-09-20T20:42:32.711Z,37.41
2018-09-20T20:44:59.093Z,37.37
2018-09-20T20:47:25.448Z,37.33
2018-09-20T20:49:51.774Z,37.24
2018-09-20T20:52:18.141Z,37.30
2018-09-20T20:54:44.506Z,37.12
2018-09-20T20:57:10.875Z,37.24
2018-09-20T20:59:37.250Z,37.49
2018-09-20T21:02:03.633Z,37.27
2018-09-20T21:04:29.958Z,37.32
2018-09-20T21:06:56.323Z,37.24
2018-09-20T21:09:22.675Z,36.95
2018-09-20T21:11:49.035Z,37.28
2018-09-20T21:14:15.426Z,37.23
2018-09-20T21:16:42.062Z,36.91
2018-09-20T21:19:08.378Z,37.23
2018-09-20T21:21:34.765Z,37.28
2018-09-20T21:24:01.223Z,37.17
2018-09-20T21:26:27.588Z,37.14
2018-09-20T21:28:53.917Z,37.20
2018-09-20T21:31:20.269Z,37.08
2018-09-20T21:33:46.700Z,37.24
2018-09-20T21:36:13.046Z,37.01
2018-09-20T21:38:39.375Z,37.09
2018-09-20T21:41:05.784Z,37.22
2018-09-20T21:43:32.223Z,37.21
2018-09-20T21:45:58.693Z,37.24
2018-09-20T21:48:25.076Z,37.14
2018-09-20T21:50:51.428Z,37.20
2018-09-20T21:53:17.765Z,36.94
2018-09-20T21:55:44.241Z,37.17
2018-09-20T21:58:10.585Z,37.28
2018-09-20T22:00:36.971Z,36.85
2018-09-20T22:03:03.305Z,37.17
2018-09-20T22:05:29.723Z,37.21
2018-09-20T22:07:56.138Z,37.21
2018-09-20T22:10:22.509Z,37.24
2018-09-20T22:12:48.860Z,37.12
2018-09-20T22:15:15.257Z,36.97
2018-09-20T22:17:41.589Z,37.27
2018-09-20T22:20:08.059Z,37.29
2018-09-20T22:22:34.733Z,37.24
2018-09-20T22:25:01.086Z,37.32
2018-09-20T22:27:27.437Z,37.21
2018-09-20T22:29:53.956Z,37.17
2018-09-20T22:32:20.479Z,37.31
2018-09-20T22:34:47.015Z,37.50
2018-09-20T22:37:13.429Z,37.54
2018-09-20T22:39:39.765Z,37.46
2018-09-20T22:42:06.130Z,37.65
2018-09-20T22:44:32.637Z,37.50
2018-09-20T22:46:59.170Z,37.72
2018-09-20T22:49:25.502Z,37.63
2018-09-20T22:51:51.832Z,37.74
2018-09-20T22:54:18.181Z,37.60
2018-09-20T22:56:44.596Z,37.85
2018-09-20T22:59:10.971Z,37.69
2018-09-20T23:01:37.331Z,37.91
2018-09-20T23:04:03.733Z,37.92
2018-09-20T23:06:30.351Z,37.95
2018-09-20T23:08:56.746Z,38.06
2018-09-20T23:11:23.116Z,38.01
2018-09-20T23:13:49.505Z,37.97
2018-09-20T23:16:15.897Z,38.20
2018-09-20T23:18:42.296Z,38.19
2018-09-20T23:21:08.665Z,38.16
2018-09-20T23:23:35.118Z,38.27
2018-09-20T23:26:01.489Z,38.24
2018-09-20T23:28:27.820Z,38.43
2018-09-20T23:30:54.200Z,38.36
2018-09-20T23:33:20.609Z,38.48
2018-09-20T23:35:46.953Z,38.43
2018-09-20T23:38:13.312Z,38.59
2018-09-20T23:40:39.688Z,38.56
2018-09-20T23:43:06.028Z,38.65
2018-09-20T23:45:32.360Z,38.67
2018-09-20T23:47:58.762Z,38.76
2018-09-20T23:50:25.128Z,38.77
2018-09-20T23:52:51.636Z,38.80
2018-09-20T23:55:18.142Z,38.88
2018-09-20T23:57:44.547Z,38.96
